Time;durP1;ratioP1;P1;durP2;ratioP2;P2;SDS_P1;SDS_P2;PMS_P1;PMS_P2;Temp;Humidity;BMP_temperature;BMP_pressure;BME280_temperature;BME280_humidity;BME280_pressure;Samples;Min_cycle;Max_cycle;Signal;HPM_P1;HPM_P2
2022/08/19 00:04:47;;;;;;;;;11.00;10.00;;;;;;;;5002284;28;45498;-94
2022/08/19 00:07:13;;;;;;;;;9.00;8.33;;;;;;;;4998655;28;47208;-94
2022/08/19 00:09:43;;;;;;;;;9.00;8.67;;;;;;;;4997312;28;45805;-93
2022/08/19 00:12:11;;;;;;;;;12.00;10.00;;;;;;;;4999148;28;45414;-94
2022/08/19 00:15:01;;;;;;;;;9.00;9.00;;;;;;;;4998146;28;45649;-94
2022/08/19 00:17:30;;;;;;;;;13.33;11.33;;;;;;;;4998951;28;47540;-94
2022/08/19 00:20:35;;;;;;;;;;;;;;;;;;;;;
2022/08/19 00:23:34;;;;;;;;;10.33;10.00;;;;;;;;5014314;28;68559;-95
2022/08/19 00:25:59;;;;;;;;;10.67;9.67;;;;;;;;4998245;28;45225;-94
2022/08/19 00:28:27;;;;;;;;;12.33;9.00;;;;;;;;4997741;28;46993;-94
2022/08/19 00:30:53;;;;;;;;;14.33;10.33;;;;;;;;4998655;28;45710;-93
2022/08/19 00:46:04;;;;;;;;;11.33;10.33;;;;;;;;4841432;29;45671;-93
2022/08/19 00:48:31;;;;;;;;;10.33;10.00;;;;;;;;4824937;29;45613;-94
2022/08/19 00:50:57;;;;;;;;;10.67;10.67;;;;;;;;4825196;29;47302;-93
2022/08/19 00:53:23;;;;;;;;;11.67;10.33;;;;;;;;4825068;29;45974;-93
2022/08/19 00:55:50;;;;;;;;;12.67;11.00;;;;;;;;4825505;29;45527;-93
2022/08/19 00:58:17;;;;;;;;;9.00;9.00;;;;;;;;4825019;29;45639;-94
2022/08/19 01:00:42;;;;;;;;;10.67;9.33;;;;;;;;4824606;29;48442;-94
2022/08/19 01:03:10;;;;;;;;;11.33;9.00;;;;;;;;4824793;29;45498;-93
2022/08/19 01:05:36;;;;;;;;;10.33;9.67;;;;;;;;4824829;29;45354;-93
2022/08/19 01:08:02;;;;;;;;;15.67;10.67;;;;;;;;4840633;29;45454;-93
2022/08/19 01:10:30;;;;;;;;;10.00;10.00;;;;;;;;4824725;29;47800;-94
2022/08/19 01:12:57;;;;;;;;;12.00;10.00;;;;;;;;4838847;29;45826;-94
2022/08/19 01:15:26;;;;;;;;;10.00;10.00;;;;;;;;4902187;28;45441;-93
2022/08/19 01:17:52;;;;;;;;;10.33;8.33;;;;;;;;4919227;28;45530;-91
2022/08/19 01:20:19;;;;;;;;;14.00;14.00;;;;;;;;4978166;28;48273;-93
2022/08/19 01:22:47;;;;;;;;;8.33;8.33;;;;;;;;5000284;28;45402;-93
2022/08/19 01:25:15;;;;;;;;;9.00;8.00;;;;;;;;4982328;28;45243;-94
2022/08/19 01:27:43;;;;;;;;;11.00;10.00;;;;;;;;4998896;28;45419;-94
2022/08/19 01:30:09;;;;;;;;;9.67;8.67;;;;;;;;4980808;28;48355;-93
2022/08/19 01:32:34;;;;;;;;;9.00;8.67;;;;;;;;4980886;28;45764;-95
2022/08/19 01:35:01;;;;;;;;;10.00;10.00;;;;;;;;4981078;28;45940;-93
2022/08/19 01:37:27;;;;;;;;;11.67;9.00;;;;;;;;4981316;28;45578;-94
2022/08/19 01:39:53;;;;;;;;;11.67;11.00;;;;;;;;4980433;28;48596;-94
2022/08/19 01:42:19;;;;;;;;;11.00;10.67;;;;;;;;4981108;28;45519;-94
2022/08/19 01:44:44;;;;;;;;;10.33;8.33;;;;;;;;4980087;28;45605;-93
2022/08/19 01:47:09;;;;;;;;;13.00;11.00;;;;;;;;4997430;28;45410;-93
2022/08/19 01:49:35;;;;;;;;;9.67;9.67;;;;;;;;4979887;28;47346;-93
2022/08/19 01:52:00;;;;;;;;;11.33;10.00;;;;;;;;4981134;28;45719;-94
2022/08/19 01:54:26;;;;;;;;;11.33;9.00;;;;;;;;4979727;28;46146;-93
2022/08/19 01:56:55;;;;;;;;;8.67;8.67;;;;;;;;4980854;28;45657;-94
2022/08/19 01:59:21;;;;;;;;;10.33;8.00;;;;;;;;4979639;28;47139;-94
2022/08/19 02:01:46;;;;;;;;;9.00;9.00;;;;;;;;4980515;28;45286;-93
2022/08/19 02:04:12;;;;;;;;;10.33;10.33;;;;;;;;4976606;28;45405;-93
2022/08/19 02:06:37;;;;;;;;;12.33;10.33;;;;;;;;4991253;28;45367;-94
2022/08/19 02:09:04;;;;;;;;;7.00;7.00;;;;;;;;4996528;28;48214;-94
2022/08/19 02:11:31;;;;;;;;;13.00;11.00;;;;;;;;4997206;28;45443;-93
2022/08/19 02:13:57;;;;;;;;;11.33;10.33;;;;;;;;4996578;28;45457;-93
2022/08/19 02:16:22;;;;;;;;;10.67;9.00;;;;;;;;4997158;28;45497;-93
2022/08/19 02:18:50;;;;;;;;;9.33;9.33;;;;;;;;4996423;28;47126;-93
2022/08/19 02:21:16;;;;;;;;;10.33;9.33;;;;;;;;4997402;28;45587;-94
2022/08/19 02:23:42;;;;;;;;;15.00;10.00;;;;;;;;4999499;28;45749;-93
2022/08/19 02:26:08;;;;;;;;;13.00;11.00;;;;;;;;5000319;28;45467;-93
2022/08/19 02:28:34;;;;;;;;;11.00;10.33;;;;;;;;4999517;28;47143;-92
2022/08/19 02:31:00;;;;;;;;;11.33;9.33;;;;;;;;4999363;28;45459;-93
2022/08/19 02:33:25;;;;;;;;;11.00;11.00;;;;;;;;5017378;28;45824;-93
2022/08/19 02:35:51;;;;;;;;;13.00;12.33;;;;;;;;4996494;28;45501;-92
2022/08/19 02:38:25;;;;;;;;;9.00;8.33;;;;;;;;4979725;28;47116;-93
2022/08/19 02:40:56;;;;;;;;;10.00;8.33;;;;;;;;4980558;28;45825;-94
2022/08/19 02:43:21;;;;;;;;;10.33;10.33;;;;;;;;4980123;28;45443;-94
2022/08/19 02:45:48;;;;;;;;;9.67;9.67;;;;;;;;4980678;28;45447;-92
2022/08/19 02:48:14;;;;;;;;;10.00;10.00;;;;;;;;4980039;28;47955;-93
2022/08/19 02:50:39;;;;;;;;;9.00;8.00;;;;;;;;4980083;28;45732;-94
2022/08/19 02:53:06;;;;;;;;;9.33;8.67;;;;;;;;4979972;28;45533;-93
2022/08/19 02:55:31;;;;;;;;;9.33;8.33;;;;;;;;4980260;28;45482;-93
2022/08/19 02:57:56;;;;;;;;;10.50;8.00;;;;;;;;4979140;28;48030;-93
2022/08/19 03:00:23;;;;;;;;;11.00;8.00;;;;;;;;4980333;28;45554;-92
2022/08/19 03:02:48;;;;;;;;;10.00;9.00;;;;;;;;4982385;28;45437;-91
2022/08/19 03:05:14;;;;;;;;;10.00;10.00;;;;;;;;4982407;28;45667;-92
2022/08/19 03:07:39;;;;;;;;;13.33;11.67;;;;;;;;4982238;28;47056;-93
2022/08/19 03:10:04;;;;;;;;;11.00;10.00;;;;;;;;4981821;28;45744;-91
2022/08/19 03:12:30;;;;;;;;;11.33;10.67;;;;;;;;4980374;28;45667;-92
2022/08/19 03:14:56;;;;;;;;;13.00;11.67;;;;;;;;4979259;28;45500;-91
2022/08/19 03:17:24;;;;;;;;;10.00;10.00;;;;;;;;4979487;28;47027;-93
2022/08/19 03:19:49;;;;;;;;;9.67;9.33;;;;;;;;4978259;28;45750;-91
2022/08/19 03:22:15;;;;;;;;;9.00;9.00;;;;;;;;4979568;28;45488;-92
2022/08/19 03:24:40;;;;;;;;;9.33;8.67;;;;;;;;4997487;28;45584;-92
2022/08/19 03:27:05;;;;;;;;;12.67;12.00;;;;;;;;5016684;28;45427;-91
2022/08/19 03:29:37;;;;;;;;;12.67;11.00;;;;;;;;4997990;28;45473;-93
2022/08/19 03:32:03;;;;;;;;;9.67;9.67;;;;;;;;4998765;28;45515;-92
2022/08/19 03:34:29;;;;;;;;;8.67;8.00;;;;;;;;4997579;28;45395;-93
2022/08/19 03:36:55;;;;;;;;;11.33;10.33;;;;;;;;4998014;28;47019;-93
2022/08/19 03:39:22;;;;;;;;;10.33;10.00;;;;;;;;4997757;28;45951;-93
2022/08/19 03:41:49;;;;;;;;;8.33;8.33;;;;;;;;4998510;28;45487;-92
2022/08/19 03:44:17;;;;;;;;;9.67;9.67;;;;;;;;4998238;28;45529;-93
2022/08/19 03:46:43;;;;;;;;;8.00;8.00;;;;;;;;4998291;28;47430;-92
2022/08/19 03:49:08;;;;;;;;;10.00;10.00;;;;;;;;5015592;28;45296;-92
2022/08/19 03:51:36;;;;;;;;;11.00;10.00;;;;;;;;4998184;28;45373;-92
2022/08/19 03:54:02;;;;;;;;;11.67;9.00;;;;;;;;4998268;28;45312;-92
2022/08/19 03:56:28;;;;;;;;;7.00;5.00;;;;;;;;4998557;28;48118;-92
2022/08/19 03:58:57;;;;;;;;;10.00;8.33;;;;;;;;4998173;28;46017;-93
2022/08/19 04:01:26;;;;;;;;;8.00;8.00;;;;;;;;5016634;28;45418;-92
2022/08/19 04:03:51;;;;;;;;;9.67;9.67;;;;;;;;4997956;28;45809;-93
2022/08/19 04:06:21;;;;;;;;;9.33;8.00;;;;;;;;4994617;28;47243;-93
2022/08/19 04:08:47;;;;;;;;;9.33;8.00;;;;;;;;4996015;28;45371;-94
2022/08/19 04:11:16;;;;;;;;;10.00;9.00;;;;;;;;4995503;28;45440;-94
2022/08/19 04:13:44;;;;;;;;;8.33;7.33;;;;;;;;4994818;28;45423;-93
2022/08/19 04:16:10;;;;;;;;;7.33;7.33;;;;;;;;4994890;28;47365;-94
2022/08/19 04:18:42;;;;;;;;;10.00;10.00;;;;;;;;4994524;28;45727;-93
2022/08/19 04:21:07;;;;;;;;;8.33;8.00;;;;;;;;4995404;28;45375;-94
2022/08/19 04:23:33;;;;;;;;;7.67;7.67;;;;;;;;4994692;28;45486;-93
2022/08/19 04:26:00;;;;;;;;;8.33;7.00;;;;;;;;4978912;28;47394;-93
2022/08/19 04:31:29;;;;;;;;;10.00;7.00;;;;;;;;4997342;28;45484;-94
2022/08/19 04:33:59;;;;;;;;;7.33;7.33;;;;;;;;4995677;28;45447;-93
2022/08/19 04:36:26;;;;;;;;;7.00;7.00;;;;;;;;4995278;28;47951;-93
2022/08/19 04:38:54;;;;;;;;;9.00;7.67;;;;;;;;4996093;28;45460;-92
2022/08/19 04:44:04;;;;;;;;;8.00;8.00;;;;;;;;4996274;28;45457;-92
2022/08/19 04:46:31;;;;;;;;;6.33;5.00;;;;;;;;4996016;28;48361;-92
2022/08/19 04:48:57;;;;;;;;;7.67;7.00;;;;;;;;4995820;28;45376;-93
2022/08/19 04:51:22;;;;;;;;;6.00;6.00;;;;;;;;4995628;28;45265;-92
2022/08/19 04:53:47;;;;;;;;;8.00;6.67;;;;;;;;4994693;28;45321;-93
2022/08/19 04:56:14;;;;;;;;;8.00;6.67;;;;;;;;4996965;28;48116;-93
2022/08/19 04:58:42;;;;;;;;;6.00;6.00;;;;;;;;4997439;28;45925;-93
2022/08/19 05:01:08;;;;;;;;;8.33;7.33;;;;;;;;4997787;28;45501;-92
2022/08/19 05:03:34;;;;;;;;;6.00;6.00;;;;;;;;4996950;28;45729;-93
2022/08/19 05:06:10;;;;;;;;;7.00;5.67;;;;;;;;4997255;28;48295;-92
2022/08/19 05:08:36;;;;;;;;;6.00;6.00;;;;;;;;4997203;28;45688;-94
2022/08/19 05:11:06;;;;;;;;;6.67;6.33;;;;;;;;4997767;28;45372;-95
2022/08/19 05:13:32;;;;;;;;;5.33;5.33;;;;;;;;4997605;28;45632;-93
2022/08/19 05:16:16;;;;;;;;;;;;;;;;;;;;;
2022/08/19 05:24:10;;;;;;;;;5.00;5.00;;;;;;;;4998392;28;45344;-93
2022/08/19 05:26:36;;;;;;;;;5.33;5.33;;;;;;;;4997639;28;47303;-94
2022/08/19 05:29:02;;;;;;;;;7.00;7.00;;;;;;;;4997362;28;45523;-93
2022/08/19 05:31:29;;;;;;;;;4.33;4.33;;;;;;;;4998208;28;45494;-94
2022/08/19 05:33:55;;;;;;;;;5.00;5.00;;;;;;;;4996581;28;45598;-93
2022/08/19 05:36:21;;;;;;;;;4.67;4.67;;;;;;;;4997580;28;47919;-93
2022/08/19 05:38:47;;;;;;;;;5.00;5.00;;;;;;;;4998361;28;45422;-93
2022/08/19 05:41:16;;;;;;;;;5.67;4.00;;;;;;;;4997957;28;45437;-94
2022/08/19 05:43:41;;;;;;;;;7.00;5.00;;;;;;;;4997064;28;45384;-92
2022/08/19 05:46:08;;;;;;;;;4.67;4.00;;;;;;;;4998425;28;47335;-93
2022/08/19 05:48:34;;;;;;;;;7.00;5.67;;;;;;;;4996613;28;45605;-93
2022/08/19 05:51:03;;;;;;;;;7.00;6.67;;;;;;;;4997543;28;45446;-93
2022/08/19 05:53:37;;;;;;;;;3.33;3.33;;;;;;;;4997394;28;45699;-94
2022/08/19 05:56:04;;;;;;;;;5.00;5.00;;;;;;;;4997115;28;47513;-94
2022/08/19 05:58:29;;;;;;;;;5.00;5.00;;;;;;;;4996930;28;45521;-93
2022/08/19 06:00:54;;;;;;;;;4.00;4.00;;;;;;;;4996773;28;45409;-92
2022/08/19 06:03:19;;;;;;;;;5.00;5.00;;;;;;;;5001489;28;45308;-93
2022/08/19 06:05:45;;;;;;;;;4.00;4.00;;;;;;;;4993279;28;47344;-93
2022/08/19 06:08:10;;;;;;;;;3.67;3.67;;;;;;;;4977134;28;45778;-93
2022/08/19 06:10:36;;;;;;;;;3.00;3.00;;;;;;;;4978044;28;45443;-93
2022/08/19 06:13:02;;;;;;;;;4.33;4.00;;;;;;;;4981087;28;45602;-93
2022/08/19 06:15:28;;;;;;;;;5.00;4.33;;;;;;;;4982440;28;46986;-93
2022/08/19 06:17:53;;;;;;;;;4.00;4.00;;;;;;;;4985009;28;45540;-94
2022/08/19 06:20:20;;;;;;;;;3.00;3.00;;;;;;;;4983451;28;45394;-94
2022/08/19 06:22:48;;;;;;;;;4.00;2.67;;;;;;;;4986950;28;45461;-94
2022/08/19 06:25:14;;;;;;;;;3.00;3.00;;;;;;;;5002142;28;47200;-92
2022/08/19 06:27:40;;;;;;;;;5.00;5.00;;;;;;;;4999768;28;45446;-89
2022/08/19 06:30:06;;;;;;;;;4.33;4.00;;;;;;;;4996120;28;45504;-87
2022/08/19 06:32:31;;;;;;;;;4.00;4.00;;;;;;;;4996368;28;45337;-87
2022/08/19 06:34:56;;;;;;;;;5.33;4.67;;;;;;;;4994512;28;47515;-86
2022/08/19 06:37:22;;;;;;;;;4.00;4.00;;;;;;;;4976942;28;45525;-87
2022/08/19 06:39:47;;;;;;;;;3.33;3.00;;;;;;;;4991289;28;45607;-86
2022/08/19 06:42:16;;;;;;;;;3.00;3.00;;;;;;;;4977143;28;45388;-85
2022/08/19 06:44:42;;;;;;;;;3.00;3.00;;;;;;;;4975655;28;45349;-85
2022/08/19 06:47:08;;;;;;;;;4.33;4.00;;;;;;;;4991714;28;46220;-84
2022/08/19 06:49:34;;;;;;;;;3.33;3.33;;;;;;;;4990721;28;45312;-83
2022/08/19 06:52:00;;;;;;;;;2.33;2.33;;;;;;;;4980348;28;45423;-87
2022/08/19 06:54:26;;;;;;;;;3.00;3.00;;;;;;;;4980748;28;47366;-86
2022/08/19 06:56:51;;;;;;;;;3.67;3.00;;;;;;;;4985402;28;45622;-87
2022/08/19 06:59:18;;;;;;;;;2.33;2.33;;;;;;;;4986198;28;45493;-87
2022/08/19 07:01:46;;;;;;;;;7.00;6.00;;;;;;;;4994965;28;45391;-87
2022/08/19 07:04:12;;;;;;;;;8.00;5.00;;;;;;;;4993364;28;46537;-87
2022/08/19 07:06:37;;;;;;;;;5.00;5.00;;;;;;;;4997553;28;45740;-87
2022/08/19 07:09:03;;;;;;;;;3.00;3.00;;;;;;;;5015280;28;45332;-87
2022/08/19 07:11:29;;;;;;;;;2.33;2.00;;;;;;;;5015947;28;45499;-87
2022/08/19 07:13:55;;;;;;;;;3.67;3.00;;;;;;;;4994680;28;46934;-86
2022/08/19 07:16:20;;;;;;;;;1.00;1.00;;;;;;;;5014574;28;45327;-86
2022/08/19 07:18:46;;;;;;;;;1.00;1.00;;;;;;;;5015565;28;45561;-88
2022/08/19 07:21:17;;;;;;;;;1.00;1.00;;;;;;;;4988898;28;45881;-88
2022/08/19 07:23:42;;;;;;;;;1.67;1.67;;;;;;;;4995724;28;47193;-88
2022/08/19 07:26:09;;;;;;;;;2.67;2.67;;;;;;;;5009409;28;45490;-88
2022/08/19 07:28:38;;;;;;;;;1.00;1.00;;;;;;;;4994788;28;45445;-89
2022/08/19 07:31:03;;;;;;;;;1.00;0.00;;;;;;;;4995626;28;45458;-88
2022/08/19 07:33:32;;;;;;;;;0.67;0.67;;;;;;;;4993792;28;45628;-88
2022/08/19 07:35:57;;;;;;;;;1.67;1.67;;;;;;;;5006828;28;45482;-88
2022/08/19 07:38:22;;;;;;;;;1.00;1.00;;;;;;;;4995875;28;46165;-87
2022/08/19 07:40:47;;;;;;;;;2.33;1.00;;;;;;;;4995902;28;45453;-88
2022/08/19 07:43:12;;;;;;;;;3.00;3.00;;;;;;;;5005525;28;46706;-87
2022/08/19 07:45:38;;;;;;;;;0.67;0.67;;;;;;;;4993970;28;45971;-88
2022/08/19 07:48:03;;;;;;;;;1.00;1.00;;;;;;;;5012721;28;45387;-88
2022/08/19 07:50:29;;;;;;;;;4.33;3.00;;;;;;;;4995113;28;45667;-88
2022/08/19 07:52:54;;;;;;;;;2.00;2.00;;;;;;;;5014160;28;45433;-88
2022/08/19 07:55:21;;;;;;;;;3.00;1.33;;;;;;;;4995539;28;45596;-89
2022/08/19 07:57:46;;;;;;;;;1.00;1.00;;;;;;;;5013817;28;45877;-92
2022/08/19 08:00:11;;;;;;;;;1.33;1.33;;;;;;;;5006836;28;45449;-91
2022/08/19 08:02:38;;;;;;;;;1.00;1.00;;;;;;;;4989762;28;46937;-90
2022/08/19 08:10:32;;;;;;;;;0.33;0.00;;;;;;;;5010250;28;45568;-91
2022/08/19 08:12:57;;;;;;;;;1.00;1.00;;;;;;;;5001467;28;45959;-90
2022/08/19 08:15:22;;;;;;;;;1.00;1.00;;;;;;;;4994238;28;45526;-91
2022/08/19 08:17:48;;;;;;;;;3.00;1.00;;;;;;;;4996731;28;45649;-91
2022/08/19 08:20:14;;;;;;;;;0.67;0.67;;;;;;;;4991300;28;45413;-92
2022/08/19 08:25:27;;;;;;;;;2.67;2.00;;;;;;;;5013608;28;45457;-91
2022/08/19 08:27:52;;;;;;;;;1.33;1.33;;;;;;;;4996586;28;45436;-91
2022/08/19 08:30:19;;;;;;;;;1.33;0.33;;;;;;;;5013414;28;45339;-91
2022/08/19 08:32:45;;;;;;;;;1.00;1.00;;;;;;;;4995279;28;48647;-91
2022/08/19 08:35:12;;;;;;;;;1.00;1.00;;;;;;;;4994452;28;45569;-90
2022/08/19 08:37:37;;;;;;;;;0.00;0.00;;;;;;;;4998122;28;45534;-92
2022/08/19 08:40:06;;;;;;;;;0.33;0.33;;;;;;;;4994785;28;45747;-91
2022/08/19 08:42:34;;;;;;;;;1.00;1.00;;;;;;;;5012112;28;48483;-91
2022/08/19 08:45:02;;;;;;;;;1.00;1.00;;;;;;;;5012340;28;45461;-91
2022/08/19 08:47:34;;;;;;;;;0.00;0.00;;;;;;;;5013680;28;45667;-92
2022/08/19 08:50:03;;;;;;;;;0.33;0.00;;;;;;;;5013030;28;45346;-90
2022/08/19 08:52:30;;;;;;;;;0.00;0.00;;;;;;;;4997668;28;48239;-91
2022/08/19 08:54:57;;;;;;;;;1.00;0.00;;;;;;;;5011730;28;45805;-91
2022/08/19 08:57:34;;;;;;;;;1.33;1.33;;;;;;;;4995843;28;45395;-91
2022/08/19 09:00:05;;;;;;;;;0.00;0.00;;;;;;;;5012723;28;45316;-90
2022/08/19 09:02:30;;;;;;;;;1.00;1.00;;;;;;;;5013193;28;46345;-90
2022/08/19 09:04:55;;;;;;;;;0.00;0.00;;;;;;;;5027852;28;46162;-93
2022/08/19 09:07:47;;;;;;;;;2.33;1.33;;;;;;;;5026037;28;45414;-93
2022/08/19 09:10:21;;;;;;;;;0.67;0.67;;;;;;;;4992244;28;46737;-90
2022/08/19 09:13:02;;;;;;;;;1.33;1.00;;;;;;;;5006305;28;45518;-93
2022/08/19 09:15:34;;;;;;;;;0.67;0.67;;;;;;;;4991280;28;45500;-93
2022/08/19 09:18:01;;;;;;;;;1.67;1.33;;;;;;;;4986578;28;45526;-92
2022/08/19 09:20:27;;;;;;;;;1.00;1.00;;;;;;;;4977365;28;45540;-89
2022/08/19 09:22:52;;;;;;;;;0.67;0.67;;;;;;;;4984336;28;47380;-90
2022/08/19 09:25:23;;;;;;;;;0.00;0.00;;;;;;;;4974608;28;45400;-90
2022/08/19 09:27:49;;;;;;;;;2.00;2.00;;;;;;;;4975488;28;45462;-90
2022/08/19 09:30:16;;;;;;;;;2.00;2.00;;;;;;;;4991158;28;45725;-92
2022/08/19 09:32:42;;;;;;;;;1.67;1.67;;;;;;;;4994027;28;45545;-93
2022/08/19 09:35:07;;;;;;;;;0.00;0.00;;;;;;;;4988687;28;45368;-91
2022/08/19 09:37:32;;;;;;;;;1.33;1.33;;;;;;;;4973106;28;45477;-93
2022/08/19 09:39:58;;;;;;;;;1.00;1.00;;;;;;;;4982778;28;45752;-93
2022/08/19 09:42:23;;;;;;;;;0.00;0.00;;;;;;;;4998331;28;46852;-93
2022/08/19 09:44:48;;;;;;;;;1.00;1.00;;;;;;;;4997642;28;45423;-93
2022/08/19 09:47:13;;;;;;;;;0.00;0.00;;;;;;;;4998928;28;45420;-92
2022/08/19 09:49:39;;;;;;;;;1.00;0.00;;;;;;;;4994486;28;45520;-92
2022/08/19 09:52:07;;;;;;;;;0.00;0.00;;;;;;;;4996304;28;46682;-91
2022/08/19 09:54:32;;;;;;;;;0.00;0.00;;;;;;;;4995332;28;45478;-91
2022/08/19 09:56:58;;;;;;;;;0.00;0.00;;;;;;;;4995339;28;45420;-92
2022/08/19 09:59:23;;;;;;;;;1.00;1.00;;;;;;;;4995851;28;45705;-91
2022/08/19 10:01:49;;;;;;;;;0.00;0.00;;;;;;;;4985515;28;48747;-91
2022/08/19 10:04:14;;;;;;;;;0.00;0.00;;;;;;;;4992853;28;45953;-92
2022/08/19 10:06:39;;;;;;;;;1.33;1.33;;;;;;;;4998726;28;45489;-91
2022/08/19 10:09:07;;;;;;;;;0.33;0.33;;;;;;;;5016145;28;45431;-93
2022/08/19 10:11:32;;;;;;;;;0.00;0.00;;;;;;;;4998771;28;47104;-92
2022/08/19 10:13:58;;;;;;;;;0.33;0.33;;;;;;;;4998265;28;45889;-89
2022/08/19 10:16:23;;;;;;;;;1.67;0.00;;;;;;;;4999701;28;45394;-93
2022/08/19 10:18:49;;;;;;;;;0.67;0.00;;;;;;;;4998707;28;45375;-94
2022/08/19 10:21:25;;;;;;;;;0.67;0.67;;;;;;;;4998328;28;48246;-90
2022/08/19 10:23:52;;;;;;;;;0.00;0.00;;;;;;;;4993554;28;45722;-88
2022/08/19 10:26:19;;;;;;;;;1.33;0.00;;;;;;;;5003357;28;45737;-89
2022/08/19 10:28:44;;;;;;;;;0.00;0.00;;;;;;;;4996516;28;45411;-91
2022/08/19 10:31:10;;;;;;;;;0.00;0.00;;;;;;;;4998001;28;47038;-91
2022/08/19 10:33:36;;;;;;;;;0.33;0.33;;;;;;;;4996940;28;45639;-91
2022/08/19 10:36:06;;;;;;;;;0.00;0.00;;;;;;;;5009825;28;45380;-95
2022/08/19 10:38:33;;;;;;;;;0.00;0.00;;;;;;;;5014089;28;45661;-88
2022/08/19 10:41:06;;;;;;;;;1.00;0.00;;;;;;;;4995096;28;46420;-87
2022/08/19 10:43:32;;;;;;;;;1.33;0.00;;;;;;;;4987902;28;45541;-92
2022/08/19 10:45:58;;;;;;;;;1.00;1.00;;;;;;;;4987566;28;45420;-90
2022/08/19 10:48:24;;;;;;;;;3.00;0.00;;;;;;;;4994048;28;45257;-92
2022/08/19 10:53:35;;;;;;;;;0.67;0.67;;;;;;;;4925073;28;45928;-89
2022/08/19 10:58:44;;;;;;;;;0.00;0.00;;;;;;;;4943849;28;45580;-94
2022/08/19 11:01:09;;;;;;;;;0.00;0.00;;;;;;;;4936639;28;46059;-94
2022/08/19 11:03:34;;;;;;;;;0.00;0.00;;;;;;;;4934591;28;45447;-93
2022/08/19 11:06:01;;;;;;;;;0.00;0.00;;;;;;;;4935305;28;45592;-90
2022/08/19 11:08:26;;;;;;;;;1.33;0.00;;;;;;;;4935535;28;45496;-91
2022/08/19 11:10:55;;;;;;;;;0.00;0.00;;;;;;;;4934361;28;47246;-92
2022/08/19 11:13:20;;;;;;;;;0.00;0.00;;;;;;;;4935262;28;45402;-90
2022/08/19 11:15:47;;;;;;;;;0.00;0.00;;;;;;;;4931285;28;45460;-88
2022/08/19 11:18:12;;;;;;;;;0.00;0.00;;;;;;;;4934424;28;45849;-89
2022/08/19 11:20:37;;;;;;;;;0.00;0.00;;;;;;;;4933714;28;46965;-88
2022/08/19 11:23:04;;;;;;;;;0.00;0.00;;;;;;;;4918186;28;45725;-89
2022/08/19 11:25:29;;;;;;;;;1.00;1.00;;;;;;;;4935809;28;45425;-91
2022/08/19 11:27:55;;;;;;;;;0.00;0.00;;;;;;;;4933973;28;45632;-89
2022/08/19 11:30:20;;;;;;;;;1.00;0.00;;;;;;;;4957969;28;48438;-89
2022/08/19 11:32:46;;;;;;;;;0.00;0.00;;;;;;;;4996866;28;45423;-90
2022/08/19 11:35:11;;;;;;;;;0.00;0.00;;;;;;;;5014499;28;45585;-90
2022/08/19 11:37:37;;;;;;;;;0.33;0.33;;;;;;;;5016448;28;45603;-90
2022/08/19 11:40:03;;;;;;;;;0.00;0.00;;;;;;;;5012719;28;47913;-89
2022/08/19 11:45:13;;;;;;;;;0.33;0.33;;;;;;;;5014436;28;45398;-90
2022/08/19 11:47:38;;;;;;;;;0.67;0.00;;;;;;;;5014962;28;45526;-90
2022/08/19 11:50:05;;;;;;;;;0.00;0.00;;;;;;;;4995887;28;48265;-91
2022/08/19 11:52:30;;;;;;;;;0.00;0.00;;;;;;;;4996741;28;45972;-89
2022/08/19 11:54:56;;;;;;;;;1.00;1.00;;;;;;;;5013265;28;45308;-91
2022/08/19 11:57:21;;;;;;;;;0.00;0.00;;;;;;;;5013823;28;45437;-90
2022/08/19 11:59:50;;;;;;;;;0.00;0.00;;;;;;;;4996975;28;47033;-90
2022/08/19 12:02:16;;;;;;;;;0.67;0.67;;;;;;;;4994849;28;45482;-91
2022/08/19 12:04:41;;;;;;;;;0.33;0.33;;;;;;;;4987177;28;45311;-91
2022/08/19 12:07:06;;;;;;;;;0.00;0.00;;;;;;;;4977159;28;45551;-88
2022/08/19 12:09:34;;;;;;;;;0.00;0.00;;;;;;;;4975956;28;48157;-91
2022/08/19 12:11:59;;;;;;;;;0.00;0.00;;;;;;;;4992565;28;46612;-88
2022/08/19 12:14:24;;;;;;;;;0.00;0.00;;;;;;;;4996608;28;45829;-89
2022/08/19 12:16:49;;;;;;;;;1.00;1.00;;;;;;;;5012032;28;45524;-89
2022/08/19 12:19:15;;;;;;;;;0.00;0.00;;;;;;;;5004770;28;45555;-89
2022/08/19 12:21:40;;;;;;;;;0.00;0.00;;;;;;;;5019203;28;45671;-89
2022/08/19 12:24:06;;;;;;;;;0.00;0.00;;;;;;;;5010596;28;45462;-90
2022/08/19 12:26:31;;;;;;;;;0.00;0.00;;;;;;;;5008703;28;45870;-89
2022/08/19 12:28:59;;;;;;;;;0.00;0.00;;;;;;;;5000834;28;47097;-89
2022/08/19 12:31:24;;;;;;;;;0.00;0.00;;;;;;;;5006757;28;45709;-89
2022/08/19 12:33:49;;;;;;;;;1.00;1.00;;;;;;;;5010354;28;45376;-89
2022/08/19 12:36:15;;;;;;;;;0.00;0.00;;;;;;;;4994789;28;45391;-89
2022/08/19 12:38:41;;;;;;;;;0.00;0.00;;;;;;;;4991322;28;45651;-89
2022/08/19 12:41:07;;;;;;;;;2.00;1.00;;;;;;;;5001166;28;45640;-89
2022/08/19 12:43:34;;;;;;;;;1.00;1.00;;;;;;;;5009997;28;45339;-87
2022/08/19 12:45:59;;;;;;;;;0.00;0.00;;;;;;;;5013120;28;45342;-89
2022/08/19 12:48:24;;;;;;;;;2.00;1.00;;;;;;;;5012203;28;45449;-89
2022/08/19 12:50:50;;;;;;;;;0.00;0.00;;;;;;;;5013032;28;45473;-90
2022/08/19 12:53:15;;;;;;;;;1.00;1.00;;;;;;;;5028435;28;45369;-87
2022/08/19 12:55:42;;;;;;;;;0.33;0.33;;;;;;;;5011418;28;45535;-88
2022/08/19 12:58:07;;;;;;;;;2.00;0.00;;;;;;;;5013419;28;45563;-89
2022/08/19 13:00:32;;;;;;;;;0.00;0.00;;;;;;;;5021454;28;46665;-89
2022/08/19 13:02:58;;;;;;;;;0.00;0.00;;;;;;;;5012397;28;45394;-89
2022/08/19 13:05:24;;;;;;;;;0.67;0.67;;;;;;;;5014788;28;45485;-90
2022/08/19 13:07:50;;;;;;;;;0.00;0.00;;;;;;;;5033544;28;45499;-88
2022/08/19 13:10:18;;;;;;;;;0.00;0.00;;;;;;;;5032665;28;45570;-89
2022/08/19 13:12:44;;;;;;;;;1.00;1.00;;;;;;;;5032533;28;45375;-90
2022/08/19 13:15:10;;;;;;;;;1.00;1.00;;;;;;;;5014819;28;45601;-89
2022/08/19 13:17:35;;;;;;;;;0.00;0.00;;;;;;;;5016792;28;47816;-90
2022/08/19 13:20:01;;;;;;;;;0.00;0.00;;;;;;;;5017328;28;45555;-89
2022/08/19 13:22:26;;;;;;;;;0.67;0.67;;;;;;;;5029467;28;45494;-89
2022/08/19 13:24:52;;;;;;;;;0.67;0.67;;;;;;;;5011143;28;45423;-89
2022/08/19 13:27:17;;;;;;;;;0.33;0.33;;;;;;;;5014999;28;48014;-90
2022/08/19 13:35:12;;;;;;;;;0.00;0.00;;;;;;;;5023604;28;45510;-90
2022/08/19 13:37:43;;;;;;;;;0.00;0.00;;;;;;;;5010277;28;48350;-89
2022/08/19 13:40:15;;;;;;;;;0.00;0.00;;;;;;;;5035374;28;45424;-90
2022/08/19 13:42:40;;;;;;;;;1.00;0.00;;;;;;;;5030562;28;45740;-90
2022/08/19 13:45:06;;;;;;;;;0.67;0.00;;;;;;;;5035478;28;45453;-89
2022/08/19 13:47:32;;;;;;;;;0.00;0.00;;;;;;;;5035575;28;46172;-88
2022/08/19 13:49:57;;;;;;;;;0.00;0.00;;;;;;;;5016778;28;46315;-89
2022/08/19 13:52:22;;;;;;;;;0.00;0.00;;;;;;;;5018500;28;45362;-89
2022/08/19 13:54:48;;;;;;;;;0.00;0.00;;;;;;;;5013420;28;45603;-89
2022/08/19 13:57:13;;;;;;;;;0.00;0.00;;;;;;;;4997689;28;47239;-89
2022/08/19 13:59:38;;;;;;;;;0.00;0.00;;;;;;;;5003082;28;45811;-88
2022/08/19 14:02:05;;;;;;;;;0.00;0.00;;;;;;;;5035465;28;45643;-89
2022/08/19 14:04:30;;;;;;;;;0.00;0.00;;;;;;;;5028990;28;45489;-89
2022/08/19 14:06:56;;;;;;;;;0.00;0.00;;;;;;;;5015878;28;46311;-87
2022/08/19 14:09:21;;;;;;;;;1.00;1.00;;;;;;;;4997501;28;45631;-89
2022/08/19 14:11:46;;;;;;;;;0.00;0.00;;;;;;;;4998293;28;45415;-88
2022/08/19 14:14:11;;;;;;;;;0.00;0.00;;;;;;;;4981921;28;45905;-88
2022/08/19 14:16:37;;;;;;;;;0.00;0.00;;;;;;;;5009145;28;48591;-88
2022/08/19 14:19:02;;;;;;;;;0.00;0.00;;;;;;;;5005774;28;46134;-89
2022/08/19 14:21:27;;;;;;;;;0.00;0.00;;;;;;;;5030339;28;45423;-88
2022/08/19 14:23:53;;;;;;;;;0.00;0.00;;;;;;;;5014535;28;45687;-88
2022/08/19 14:26:19;;;;;;;;;0.00;0.00;;;;;;;;5009089;28;47403;-86
2022/08/19 14:28:45;;;;;;;;;0.00;0.00;;;;;;;;5000073;28;45992;-86
2022/08/19 14:31:18;;;;;;;;;0.00;0.00;;;;;;;;4999060;28;45430;-89
2022/08/19 14:33:43;;;;;;;;;0.00;0.00;;;;;;;;4987319;28;45414;-89
2022/08/19 14:36:08;;;;;;;;;0.00;0.00;;;;;;;;4996896;28;47542;-89
2022/08/19 14:38:34;;;;;;;;;0.00;0.00;;;;;;;;4998353;28;45618;-88
2022/08/19 14:41:08;;;;;;;;;0.00;0.00;;;;;;;;5016168;28;45505;-88
2022/08/19 14:43:34;;;;;;;;;0.00;0.00;;;;;;;;5015417;28;45462;-89
2022/08/19 14:45:59;;;;;;;;;0.00;0.00;;;;;;;;4989621;28;47795;-87
2022/08/19 14:48:24;;;;;;;;;0.67;0.67;;;;;;;;4997653;28;45752;-88
2022/08/19 14:50:50;;;;;;;;;0.00;0.00;;;;;;;;4994164;28;45725;-88
2022/08/19 14:53:15;;;;;;;;;0.33;0.00;;;;;;;;5011145;28;45601;-88
2022/08/19 14:55:42;;;;;;;;;0.00;0.00;;;;;;;;5014479;28;46342;-88
2022/08/19 14:58:08;;;;;;;;;0.33;0.00;;;;;;;;5014071;28;45372;-88
2022/08/19 15:00:33;;;;;;;;;1.00;0.00;;;;;;;;5002824;28;45383;-88
2022/08/19 15:02:59;;;;;;;;;0.00;0.00;;;;;;;;5010938;28;45355;-88
2022/08/19 15:05:24;;;;;;;;;0.00;0.00;;;;;;;;5012536;28;47127;-88
2022/08/19 15:07:49;;;;;;;;;0.00;0.00;;;;;;;;5035006;28;45423;-88
2022/08/19 15:10:15;;;;;;;;;1.33;1.00;;;;;;;;5032992;28;45393;-88
2022/08/19 15:12:42;;;;;;;;;3.00;1.00;;;;;;;;5034263;28;45355;-88
2022/08/19 15:15:08;;;;;;;;;0.67;0.00;;;;;;;;5017028;28;48432;-88
2022/08/19 15:17:34;;;;;;;;;2.00;2.00;;;;;;;;5015719;28;45732;-87
2022/08/19 15:20:01;;;;;;;;;1.00;1.00;;;;;;;;5009203;28;45464;-89
2022/08/19 15:22:26;;;;;;;;;0.00;0.00;;;;;;;;5029181;28;45406;-88
2022/08/19 15:24:54;;;;;;;;;0.33;0.33;;;;;;;;5016107;28;45425;-88
2022/08/19 15:27:19;;;;;;;;;0.67;0.00;;;;;;;;5030343;28;45506;-89